sensor_id;sensor_type;location;lat;lon;timestamp;pressure;altitude;pressure_sealevel;temperature;humidity
84116;BME280;74211;52.234;9.860;2024-01-06T00:01:00;99607.66;;;6.66;78.67
84116;BME280;74211;52.234;9.860;2024-01-06T00:03:31;99613.00;;;6.65;78.96
84116;BME280;74211;52.234;9.860;2024-01-06T00:06:01;99615.19;;;6.61;80.07
84116;BME280;74211;52.234;9.860;2024-01-06T00:08:31;99614.94;;;6.56;80.69
84116;BME280;74211;52.234;9.860;2024-01-06T00:11:04;99619.94;;;6.57;81.53
84116;BME280;74211;52.234;9.860;2024-01-06T00:13:34;99619.31;;;6.55;79.68
84116;BME280;74211;52.234;9.860;2024-01-06T00:16:04;99619.19;;;6.64;77.95
84116;BME280;74211;52.234;9.860;2024-01-06T00:18:34;99628.56;;;6.65;80.80
84116;BME280;74211;52.234;9.860;2024-01-06T00:21:05;99627.94;;;6.63;80.67
84116;BME280;74211;52.234;9.860;2024-01-06T00:23:36;99633.75;;;6.65;79.75
84116;BME280;74211;52.234;9.860;2024-01-06T00:26:09;99627.50;;;6.59;80.61
84116;BME280;74211;52.234;9.860;2024-01-06T00:28:40;99635.03;;;6.54;81.72
84116;BME280;74211;52.234;9.860;2024-01-06T00:31:10;99627.28;;;6.54;80.80
84116;BME280;74211;52.234;9.860;2024-01-06T00:33:40;99629.50;;;6.57;80.52
84116;BME280;74211;52.234;9.860;2024-01-06T00:36:11;99634.25;;;6.53;83.31
84116;BME280;74211;52.234;9.860;2024-01-06T00:38:43;99635.22;;;6.52;80.62
84116;BME280;74211;52.234;9.860;2024-01-06T00:41:15;99629.44;;;6.50;81.21
84116;BME280;74211;52.234;9.860;2024-01-06T00:43:45;99635.56;;;6.43;81.95
84116;BME280;74211;52.234;9.860;2024-01-06T00:46:15;99646.47;;;6.38;84.31
84116;BME280;74211;52.234;9.860;2024-01-06T00:48:46;99647.63;;;6.29;84.32
84116;BME280;74211;52.234;9.860;2024-01-06T00:51:16;99648.53;;;6.21;85.69
84116;BME280;74211;52.234;9.860;2024-01-06T00:53:47;99652.03;;;6.14;86.68
84116;BME280;74211;52.234;9.860;2024-01-06T00:56:19;99653.81;;;6.13;87.41
84116;BME280;74211;52.234;9.860;2024-01-06T00:58:49;99641.81;;;6.06;85.65
84116;BME280;74211;52.234;9.860;2024-01-06T01:01:20;99652.22;;;6.12;85.95
84116;BME280;74211;52.234;9.860;2024-01-06T01:03:50;99652.22;;;6.12;87.02
84116;BME280;74211;52.234;9.860;2024-01-06T01:06:20;99646.31;;;5.97;86.44
84116;BME280;74211;52.234;9.860;2024-01-06T01:08:50;99660.94;;;6.05;87.54
84116;BME280;74211;52.234;9.860;2024-01-06T01:11:23;99663.50;;;6.05;87.90
84116;BME280;74211;52.234;9.860;2024-01-06T01:13:53;99667.72;;;6.06;88.67
84116;BME280;74211;52.234;9.860;2024-01-06T01:16:23;99670.91;;;6.08;87.73
84116;BME280;74211;52.234;9.860;2024-01-06T01:18:54;99680.28;;;6.09;86.96
84116;BME280;74211;52.234;9.860;2024-01-06T01:21:24;99668.44;;;6.00;87.87
84116;BME280;74211;52.234;9.860;2024-01-06T01:23:54;99681.28;;;6.08;88.16
84116;BME280;74211;52.234;9.860;2024-01-06T01:26:27;99687.19;;;6.02;88.52
84116;BME280;74211;52.234;9.860;2024-01-06T01:28:58;99682.00;;;6.02;88.45
84116;BME280;74211;52.234;9.860;2024-01-06T01:31:27;99685.28;;;6.10;88.13
84116;BME280;74211;52.234;9.860;2024-01-06T01:33:58;99684.84;;;6.07;88.45
84116;BME280;74211;52.234;9.860;2024-01-06T01:36:28;99675.94;;;5.95;88.44
84116;BME280;74211;52.234;9.860;2024-01-06T01:38:58;99691.19;;;6.04;87.57
84116;BME280;74211;52.234;9.860;2024-01-06T01:41:32;99687.25;;;6.08;88.91
84116;BME280;74211;52.234;9.860;2024-01-06T01:44:02;99689.03;;;6.08;88.67
84116;BME280;74211;52.234;9.860;2024-01-06T01:46:33;99698.78;;;6.06;88.66
84116;BME280;74211;52.234;9.860;2024-01-06T01:49:06;99690.38;;;6.04;88.35
84116;BME280;74211;52.234;9.860;2024-01-06T01:51:36;99692.53;;;6.00;87.80
84116;BME280;74211;52.234;9.860;2024-01-06T01:54:07;99696.72;;;6.01;87.16
84116;BME280;74211;52.234;9.860;2024-01-06T01:56:40;99691.38;;;6.03;87.79
84116;BME280;74211;52.234;9.860;2024-01-06T01:59:12;99696.38;;;6.04;87.94
84116;BME280;74211;52.234;9.860;2024-01-06T02:01:43;99700.75;;;6.04;89.27
84116;BME280;74211;52.234;9.860;2024-01-06T02:04:14;99700.47;;;5.99;88.76
84116;BME280;74211;52.234;9.860;2024-01-06T02:06:44;99707.09;;;6.01;88.41
84116;BME280;74211;52.234;9.860;2024-01-06T02:09:15;99695.13;;;6.00;89.15
84116;BME280;74211;52.234;9.860;2024-01-06T02:11:48;99702.09;;;6.00;88.51
84116;BME280;74211;52.234;9.860;2024-01-06T02:14:18;99700.91;;;6.02;89.16
84116;BME280;74211;52.234;9.860;2024-01-06T02:16:48;99707.63;;;5.97;87.83
84116;BME280;74211;52.234;9.860;2024-01-06T02:19:18;99704.22;;;5.96;88.58
84116;BME280;74211;52.234;9.860;2024-01-06T02:21:52;99717.00;;;5.98;88.77
84116;BME280;74211;52.234;9.860;2024-01-06T02:24:20;99707.09;;;5.86;88.08
84116;BME280;74211;52.234;9.860;2024-01-06T02:26:50;99718.16;;;5.95;88.28
84116;BME280;74211;52.234;9.860;2024-01-06T02:29:21;99722.16;;;5.98;87.76
84116;BME280;74211;52.234;9.860;2024-01-06T02:31:51;99721.00;;;6.00;87.75
84116;BME280;74211;52.234;9.860;2024-01-06T02:34:21;99721.53;;;5.96;87.24
84116;BME280;74211;52.234;9.860;2024-01-06T02:36:54;99724.53;;;5.93;86.59
84116;BME280;74211;52.234;9.860;2024-01-06T02:39:24;99726.13;;;5.94;87.56
84116;BME280;74211;52.234;9.860;2024-01-06T02:41:55;99733.28;;;5.92;87.21
84116;BME280;74211;52.234;9.860;2024-01-06T02:44:25;99731.91;;;5.96;85.69
84116;BME280;74211;52.234;9.860;2024-01-06T02:46:55;99734.13;;;5.99;85.86
84116;BME280;74211;52.234;9.860;2024-01-06T02:49:25;99734.13;;;5.99;87.20
84116;BME280;74211;52.234;9.860;2024-01-06T02:51:58;99742.25;;;5.96;87.61
84116;BME280;74211;52.234;9.860;2024-01-06T02:54:28;99735.84;;;5.92;87.49
84116;BME280;74211;52.234;9.860;2024-01-06T02:56:58;99745.22;;;5.93;86.67
84116;BME280;74211;52.234;9.860;2024-01-06T02:59:28;99754.03;;;5.98;86.36
84116;BME280;74211;52.234;9.860;2024-01-06T03:01:59;99756.63;;;5.98;86.80
84116;BME280;74211;52.234;9.860;2024-01-06T03:04:29;99756.72;;;6.05;86.69
84116;BME280;74211;52.234;9.860;2024-01-06T03:07:02;99755.91;;;6.04;86.82
84116;BME280;74211;52.234;9.860;2024-01-06T03:09:35;99752.88;;;6.01;86.50
84116;BME280;74211;52.234;9.860;2024-01-06T03:12:06;99752.69;;;6.02;87.31
84116;BME280;74211;52.234;9.860;2024-01-06T03:14:39;99747.69;;;6.01;86.61
84116;BME280;74211;52.234;9.860;2024-01-06T03:17:10;99749.47;;;6.00;87.04
84116;BME280;74211;52.234;9.860;2024-01-06T03:19:40;99752.38;;;5.90;87.56
84116;BME280;74211;52.234;9.860;2024-01-06T03:22:13;99757.25;;;6.00;87.50
84116;BME280;74211;52.234;9.860;2024-01-06T03:24:43;99764.69;;;5.88;88.01
84116;BME280;74211;52.234;9.860;2024-01-06T03:27:13;99763.94;;;5.95;88.39
84116;BME280;74211;52.234;9.860;2024-01-06T03:29:44;99772.72;;;5.94;88.68
84116;BME280;74211;52.234;9.860;2024-01-06T03:32:14;99768.53;;;5.93;88.83
84116;BME280;74211;52.234;9.860;2024-01-06T03:34:44;99764.22;;;5.85;89.06
84116;BME280;74211;52.234;9.860;2024-01-06T03:37:17;99774.47;;;5.78;89.10
84116;BME280;74211;52.234;9.860;2024-01-06T03:39:49;99773.59;;;5.71;89.38
84116;BME280;74211;52.234;9.860;2024-01-06T03:42:19;99755.22;;;5.51;89.48
84116;BME280;74211;52.234;9.860;2024-01-06T03:44:50;99763.69;;;5.31;89.75
84116;BME280;74211;52.234;9.860;2024-01-06T03:47:20;99769.03;;;5.29;90.21
84116;BME280;74211;52.234;9.860;2024-01-06T03:49:50;99782.81;;;5.21;90.51
84116;BME280;74211;52.234;9.860;2024-01-06T03:52:23;99778.09;;;5.10;90.95
84116;BME280;74211;52.234;9.860;2024-01-06T03:54:53;99773.56;;;5.12;91.11
84116;BME280;74211;52.234;9.860;2024-01-06T03:57:23;99785.22;;;5.08;90.93
84116;BME280;74211;52.234;9.860;2024-01-06T03:59:53;99773.28;;;5.07;90.80
84116;BME280;74211;52.234;9.860;2024-01-06T04:02:23;99786.72;;;5.03;91.03
84116;BME280;74211;52.234;9.860;2024-01-06T04:04:53;99794.03;;;4.99;91.17
84116;BME280;74211;52.234;9.860;2024-01-06T08:30:54;100141.97;;;3.78;94.10
84116;BME280;74211;52.234;9.860;2024-01-06T08:33:24;100145.22;;;3.80;94.27
84116;BME280;74211;52.234;9.860;2024-01-06T08:35:53;100144.72;;;3.77;94.25
84116;BME280;74211;52.234;9.860;2024-01-06T08:38:21;100148.09;;;3.77;94.18
84116;BME280;74211;52.234;9.860;2024-01-06T08:40:52;100157.47;;;3.87;94.18
84116;BME280;74211;52.234;9.860;2024-01-06T08:43:22;100162.16;;;3.83;93.93
84116;BME280;74211;52.234;9.860;2024-01-06T08:45:54;100162.16;;;3.83;94.04
84116;BME280;74211;52.234;9.860;2024-01-06T08:48:24;100162.94;;;3.83;93.75
84116;BME280;74211;52.234;9.860;2024-01-06T08:50:58;100173.78;;;3.87;93.77
84116;BME280;74211;52.234;9.860;2024-01-06T08:53:28;100176.50;;;3.86;93.88
84116;BME280;74211;52.234;9.860;2024-01-06T08:55:58;100167.28;;;3.75;93.99
84116;BME280;74211;52.234;9.860;2024-01-06T08:58:28;100175.81;;;3.75;94.08
84116;BME280;74211;52.234;9.860;2024-01-06T09:01:00;100187.63;;;3.86;94.13
84116;BME280;74211;52.234;9.860;2024-01-06T09:03:31;100186.53;;;3.89;93.81
84116;BME280;74211;52.234;9.860;2024-01-06T09:06:01;100194.41;;;3.87;93.74
84116;BME280;74211;52.234;9.860;2024-01-06T09:08:31;100202.63;;;3.82;94.03
84116;BME280;74211;52.234;9.860;2024-01-06T09:11:01;100191.78;;;3.79;93.74
84116;BME280;74211;52.234;9.860;2024-01-06T09:13:31;100209.56;;;3.90;93.54
84116;BME280;74211;52.234;9.860;2024-01-06T09:16:04;100200.34;;;3.79;93.88
84116;BME280;74211;52.234;9.860;2024-01-06T09:18:34;100215.84;;;3.88;94.14
84116;BME280;74211;52.234;9.860;2024-01-06T09:21:04;100207.47;;;3.86;93.82
84116;BME280;74211;52.234;9.860;2024-01-06T09:23:34;100217.13;;;3.92;93.69
84116;BME280;74211;52.234;9.860;2024-01-06T09:26:04;100216.31;;;3.91;93.69
84116;BME280;74211;52.234;9.860;2024-01-06T09:28:35;100230.38;;;3.89;93.95
84116;BME280;74211;52.234;9.860;2024-01-06T09:31:09;100227.00;;;3.88;93.82
84116;BME280;74211;52.234;9.860;2024-01-06T09:33:39;100212.88;;;3.66;94.03
84116;BME280;74211;52.234;9.860;2024-01-06T09:36:10;100231.00;;;3.82;94.08
84116;BME280;74211;52.234;9.860;2024-01-06T09:38:41;100243.59;;;3.86;93.89
84116;BME280;74211;52.234;9.860;2024-01-06T09:41:11;100228.03;;;3.69;94.22
84116;BME280;74211;52.234;9.860;2024-01-06T09:43:41;100245.19;;;3.87;93.87
84116;BME280;74211;52.234;9.860;2024-01-06T09:46:21;100249.56;;;3.86;94.45
84116;BME280;74211;52.234;9.860;2024-01-06T09:48:54;100252.28;;;3.93;94.02
84116;BME280;74211;52.234;9.860;2024-01-06T09:51:25;100204.84;;;3.69;94.05
84116;BME280;74211;52.234;9.860;2024-01-06T09:53:57;100252.50;;;3.99;93.78
84116;BME280;74211;52.234;9.860;2024-01-06T09:56:29;100244.38;;;3.86;93.96
84116;BME280;74211;52.234;9.860;2024-01-06T09:58:59;100236.81;;;3.85;93.84
84116;BME280;74211;52.234;9.860;2024-01-06T10:01:32;100263.47;;;4.01;94.03
84116;BME280;74211;52.234;9.860;2024-01-06T10:04:03;100257.97;;;3.96;93.67
84116;BME280;74211;52.234;9.860;2024-01-06T10:06:33;100269.75;;;3.99;93.68
84116;BME280;74211;52.234;9.860;2024-01-06T10:09:04;100253.41;;;3.82;94.15
84116;BME280;74211;52.234;9.860;2024-01-06T10:11:35;100271.97;;;3.94;94.47
84116;BME280;74211;52.234;9.860;2024-01-06T10:14:07;100269.59;;;4.00;93.87
84116;BME280;74211;52.234;9.860;2024-01-06T10:16:41;100274.53;;;3.86;94.14
84116;BME280;74211;52.234;9.860;2024-01-06T10:19:11;100265.34;;;3.83;94.18
84116;BME280;74211;52.234;9.860;2024-01-06T10:21:43;100276.16;;;3.87;94.15
84116;BME280;74211;52.234;9.860;2024-01-06T10:24:13;100277.28;;;3.84;94.48
84116;BME280;74211;52.234;9.860;2024-01-06T10:26:44;100281.50;;;3.93;94.08
84116;BME280;74211;52.234;9.860;2024-01-06T10:29:15;100275.81;;;3.81;93.73
84116;BME280;74211;52.234;9.860;2024-01-06T10:31:48;100281.03;;;3.98;94.03
84116;BME280;74211;52.234;9.860;2024-01-06T10:34:21;100286.69;;;4.01;94.00
84116;BME280;74211;52.234;9.860;2024-01-06T10:36:51;100282.34;;;4.02;94.12
84116;BME280;74211;52.234;9.860;2024-01-06T10:39:23;100287.16;;;3.97;93.77
84116;BME280;74211;52.234;9.860;2024-01-06T10:41:55;100291.00;;;3.93;94.09
84116;BME280;74211;52.234;9.860;2024-01-06T10:44:26;100296.16;;;3.93;94.25
84116;BME280;74211;52.234;9.860;2024-01-06T10:47:02;100290.03;;;3.86;94.26
84116;BME280;74211;52.234;9.860;2024-01-06T10:49:33;100292.91;;;3.91;94.25
84116;BME280;74211;52.234;9.860;2024-01-06T10:52:05;100292.47;;;3.95;93.99
84116;BME280;74211;52.234;9.860;2024-01-06T10:54:37;100296.50;;;3.98;94.09
84116;BME280;74211;52.234;9.860;2024-01-06T10:57:08;100298.94;;;3.99;94.08
84116;BME280;74211;52.234;9.860;2024-01-06T10:59:40;100309.41;;;3.90;94.19
84116;BME280;74211;52.234;9.860;2024-01-06T11:02:14;100312.31;;;3.95;93.83
84116;BME280;74211;52.234;9.860;2024-01-06T11:04:45;100316.19;;;3.99;93.97
84116;BME280;74211;52.234;9.860;2024-01-06T11:07:18;100312.16;;;3.96;94.17
84116;BME280;74211;52.234;9.860;2024-01-06T11:09:52;100308.31;;;4.00;93.77
84116;BME280;74211;52.234;9.860;2024-01-06T11:12:23;100303.13;;;4.00;94.07
84116;BME280;74211;52.234;9.860;2024-01-06T11:14:53;100307.28;;;3.93;93.47
84116;BME280;74211;52.234;9.860;2024-01-06T11:17:53;100303.59;;;3.96;93.46
84116;BME280;74211;52.234;9.860;2024-01-06T11:20:26;100313.16;;;4.03;93.43
84116;BME280;74211;52.234;9.860;2024-01-06T11:23:19;100301.97;;;3.95;93.49
84116;BME280;74211;52.234;9.860;2024-01-06T11:25:50;100308.00;;;4.03;93.75
84116;BME280;74211;52.234;9.860;2024-01-06T11:28:22;100308.75;;;3.96;92.92
84116;BME280;74211;52.234;9.860;2024-01-06T11:31:05;100299.94;;;3.72;93.33
84116;BME280;74211;52.234;9.860;2024-01-06T11:33:44;100314.16;;;3.76;94.12
84116;BME280;74211;52.234;9.860;2024-01-06T11:36:15;100308.22;;;3.84;93.62
84116;BME280;74211;52.234;9.860;2024-01-06T11:38:46;100310.97;;;3.82;94.17
84116;BME280;74211;52.234;9.860;2024-01-06T11:44:03;100308.16;;;3.68;93.64
84116;BME280;74211;52.234;9.860;2024-01-06T11:46:34;100316.28;;;3.55;93.81
84116;BME280;74211;52.234;9.860;2024-01-06T11:49:09;100316.63;;;3.60;94.00
84116;BME280;74211;52.234;9.860;2024-01-06T11:51:40;100301.91;;;3.53;93.95
84116;BME280;74211;52.234;9.860;2024-01-06T11:54:13;100323.72;;;3.58;94.34
84116;BME280;74211;52.234;9.860;2024-01-06T11:56:43;100316.63;;;3.60;94.31
84116;BME280;74211;52.234;9.860;2024-01-06T11:59:13;100315.84;;;3.60;94.37
84116;BME280;74211;52.234;9.860;2024-01-06T12:01:43;100324.97;;;3.54;94.43
84116;BME280;74211;52.234;9.860;2024-01-06T12:04:17;100327.25;;;3.57;94.83
84116;BME280;74211;52.234;9.860;2024-01-06T12:06:49;100326.56;;;3.47;94.29
84116;BME280;74211;52.234;9.860;2024-01-06T12:09:19;100325.38;;;3.41;93.91
84116;BME280;74211;52.234;9.860;2024-01-06T12:12:01;100329.81;;;3.49;94.25
84116;BME280;74211;52.234;9.860;2024-01-06T12:14:31;100323.63;;;3.42;94.18
84116;BME280;74211;52.234;9.860;2024-01-06T12:17:03;100334.16;;;3.48;94.06
84116;BME280;74211;52.234;9.860;2024-01-06T12:19:36;100335.69;;;3.41;94.07
84116;BME280;74211;52.234;9.860;2024-01-06T12:22:06;100340.72;;;3.43;94.23
84116;BME280;74211;52.234;9.860;2024-01-06T12:24:36;100347.75;;;3.33;94.02
84116;BME280;74211;52.234;9.860;2024-01-06T12:27:07;100348.69;;;3.32;93.91
84116;BME280;74211;52.234;9.860;2024-01-06T12:29:38;100352.28;;;3.39;94.18
84116;BME280;74211;52.234;9.860;2024-01-06T12:32:10;100342.91;;;3.38;94.01
84116;BME280;74211;52.234;9.860;2024-01-06T12:34:43;100356.47;;;3.40;94.14
84116;BME280;74211;52.234;9.860;2024-01-06T12:37:16;100355.75;;;3.30;93.60
84116;BME280;74211;52.234;9.860;2024-01-06T12:39:47;100350.81;;;3.36;94.29
84116;BME280;74211;52.234;9.860;2024-01-06T12:42:19;100350.47;;;3.31;93.74
84116;BME280;74211;52.234;9.860;2024-01-06T12:44:51;100347.38;;;3.28;93.74
84116;BME280;74211;52.234;9.860;2024-01-06T12:47:20;100349.00;;;3.29;93.65
84116;BME280;74211;52.234;9.860;2024-01-06T12:49:54;100313.22;;;3.08;93.60
84116;BME280;74211;52.234;9.860;2024-01-06T12:52:23;100350.59;;;3.30;93.30
84116;BME280;74211;52.234;9.860;2024-01-06T12:54:53;100353.41;;;3.19;93.32
84116;BME280;74211;52.234;9.860;2024-01-06T12:57:23;100349.16;;;3.09;93.50
84116;BME280;74211;52.234;9.860;2024-01-06T12:59:53;100366.00;;;3.22;93.71
84116;BME280;74211;52.234;9.860;2024-01-06T13:02:24;100369.25;;;3.24;93.75
84116;BME280;74211;52.234;9.860;2024-01-06T13:04:57;100354.50;;;3.16;93.53
84116;BME280;74211;52.234;9.860;2024-01-06T13:07:27;100368.88;;;3.19;94.04
84116;BME280;74211;52.234;9.860;2024-01-06T13:09:57;100373.44;;;3.25;93.88
84116;BME280;74211;52.234;9.860;2024-01-06T13:12:29;100370.72;;;3.26;93.45
84116;BME280;74211;52.234;9.860;2024-01-06T13:15:00;100376.97;;;3.24;93.39
84116;BME280;74211;52.234;9.860;2024-01-06T13:17:30;100379.47;;;3.16;93.62
84116;BME280;74211;52.234;9.860;2024-01-06T13:20:03;100378.50;;;3.17;93.51
84116;BME280;74211;52.234;9.860;2024-01-06T13:22:35;100361.53;;;2.88;93.36
84116;BME280;74211;52.234;9.860;2024-01-06T13:25:08;100377.25;;;2.85;93.67
84116;BME280;74211;52.234;9.860;2024-01-06T13:27:38;100379.03;;;2.85;93.88
84116;BME280;74211;52.234;9.860;2024-01-06T13:30:09;100393.78;;;2.92;94.04
84116;BME280;74211;52.234;9.860;2024-01-06T13:32:44;100398.25;;;2.90;93.59
84116;BME280;74211;52.234;9.860;2024-01-06T13:35:18;100404.34;;;2.89;93.93
84116;BME280;74211;52.234;9.860;2024-01-06T13:37:51;100409.13;;;2.84;93.55
84116;BME280;74211;52.234;9.860;2024-01-06T13:40:23;100419.72;;;2.81;93.84
84116;BME280;74211;52.234;9.860;2024-01-06T13:42:53;100414.06;;;2.77;93.87
84116;BME280;74211;52.234;9.860;2024-01-06T13:45:21;100401.72;;;2.54;93.45
84116;BME280;74211;52.234;9.860;2024-01-06T13:47:52;100415.34;;;2.64;94.16
84116;BME280;74211;52.234;9.860;2024-01-06T13:50:26;100428.88;;;2.66;93.80
84116;BME280;74211;52.234;9.860;2024-01-06T13:52:57;100424.56;;;2.66;93.95
84116;BME280;74211;52.234;9.860;2024-01-06T13:55:29;100427.25;;;2.65;93.95
84116;BME280;74211;52.234;9.860;2024-01-06T13:57:59;100436.75;;;2.64;94.53
84116;BME280;74211;52.234;9.860;2024-01-06T14:00:29;100442.97;;;2.71;94.64
84116;BME280;74211;52.234;9.860;2024-01-06T14:02:59;100437.00;;;2.71;93.81
84116;BME280;74211;52.234;9.860;2024-01-06T14:05:33;100449.09;;;2.61;93.88
84116;BME280;74211;52.234;9.860;2024-01-06T14:08:03;100450.84;;;2.60;94.08
84116;BME280;74211;52.234;9.860;2024-01-06T14:10:34;100455.44;;;2.66;93.67
84116;BME280;74211;52.234;9.860;2024-01-06T14:13:04;100460.25;;;2.52;93.41
84116;BME280;74211;52.234;9.860;2024-01-06T14:15:34;100464.19;;;2.56;93.96
84116;BME280;74211;52.234;9.860;2024-01-06T14:18:06;100468.53;;;2.55;93.77
84116;BME280;74211;52.234;9.860;2024-01-06T14:20:40;100469.22;;;2.48;93.83
84116;BME280;74211;52.234;9.860;2024-01-06T14:23:10;100458.72;;;2.31;93.93
84116;BME280;74211;52.234;9.860;2024-01-06T14:25:40;100475.38;;;2.37;93.65
84116;BME280;74211;52.234;9.860;2024-01-06T14:28:10;100478.22;;;2.34;93.88
84116;BME280;74211;52.234;9.860;2024-01-06T14:30:40;100480.94;;;2.23;93.75
84116;BME280;74211;52.234;9.860;2024-01-06T14:33:10;100456.88;;;2.04;93.96
84116;BME280;74211;52.234;9.860;2024-01-06T14:35:43;100486.38;;;2.20;93.75
84116;BME280;74211;52.234;9.860;2024-01-06T14:38:13;100484.63;;;2.20;93.21
84116;BME280;74211;52.234;9.860;2024-01-06T14:40:43;100489.22;;;2.17;93.70
84116;BME280;74211;52.234;9.860;2024-01-06T14:43:13;100500.09;;;2.01;93.80
84116;BME280;74211;52.234;9.860;2024-01-06T14:45:43;100496.03;;;1.89;94.07
84116;BME280;74211;52.234;9.860;2024-01-06T14:48:14;100496.31;;;1.86;94.12
84116;BME280;74211;52.234;9.860;2024-01-06T14:50:47;100509.56;;;1.91;93.81
84116;BME280;74211;52.234;9.860;2024-01-06T14:53:17;100500.78;;;1.84;93.82
84116;BME280;74211;52.234;9.860;2024-01-06T14:55:47;100508.66;;;1.82;93.37
84116;BME280;74211;52.234;9.860;2024-01-06T14:58:17;100511.78;;;1.66;93.89
84116;BME280;74211;52.234;9.860;2024-01-06T15:00:47;100519.63;;;1.65;93.92
84116;BME280;74211;52.234;9.860;2024-01-06T15:03:17;100515.41;;;1.73;94.33
84116;BME280;74211;52.234;9.860;2024-01-06T15:05:50;100515.56;;;1.82;94.51
84116;BME280;74211;52.234;9.860;2024-01-06T15:08:20;100525.00;;;1.91;94.32
84116;BME280;74211;52.234;9.860;2024-01-06T15:10:50;100524.31;;;1.89;94.54
84116;BME280;74211;52.234;9.860;2024-01-06T15:13:20;100519.44;;;1.86;94.47
84116;BME280;74211;52.234;9.860;2024-01-06T15:15:51;100529.88;;;1.94;94.13
84116;BME280;74211;52.234;9.860;2024-01-06T15:18:22;100532.03;;;1.89;94.50
84116;BME280;74211;52.234;9.860;2024-01-06T15:20:55;100545.31;;;1.94;94.59
84116;BME280;74211;52.234;9.860;2024-01-06T15:23:25;100552.75;;;1.97;94.63
84116;BME280;74211;52.234;9.860;2024-01-06T15:25:56;100546.78;;;1.87;94.14
84116;BME280;74211;52.234;9.860;2024-01-06T15:28:26;100553.03;;;1.84;94.79
84116;BME280;74211;52.234;9.860;2024-01-06T15:30:58;100556.69;;;1.91;94.32
84116;BME280;74211;52.234;9.860;2024-01-06T15:33:29;100570.50;;;2.00;94.09
84116;BME280;74211;52.234;9.860;2024-01-06T15:36:04;100575.22;;;1.95;93.86
84116;BME280;74211;52.234;9.860;2024-01-06T15:38:34;100570.88;;;1.86;93.76
84116;BME280;74211;52.234;9.860;2024-01-06T15:41:07;100581.03;;;1.78;93.90
84116;BME280;74211;52.234;9.860;2024-01-06T15:43:37;100577.09;;;1.73;94.14
84116;BME280;74211;52.234;9.860;2024-01-06T15:46:08;100600.94;;;1.76;94.30
84116;BME280;74211;52.234;9.860;2024-01-06T15:48:38;100607.19;;;1.83;94.35
84116;BME280;74211;52.234;9.860;2024-01-06T15:51:11;100600.41;;;1.82;94.51
84116;BME280;74211;52.234;9.860;2024-01-06T15:53:41;100610.69;;;1.82;94.69
84116;BME280;74211;52.234;9.860;2024-01-06T15:56:11;100613.25;;;1.72;94.70
84116;BME280;74211;52.234;9.860;2024-01-06T15:58:41;100608.09;;;1.62;94.39
84116;BME280;74211;52.234;9.860;2024-01-06T16:01:11;100615.81;;;1.62;94.44
84116;BME280;74211;52.234;9.860;2024-01-06T16:03:42;100607.78;;;1.46;93.87
84116;BME280;74211;52.234;9.860;2024-01-06T16:06:15;100619.16;;;1.53;94.52
84116;BME280;74211;52.234;9.860;2024-01-06T16:08:45;100611.81;;;1.39;93.88
84116;BME280;74211;52.234;9.860;2024-01-06T16:11:14;100624.25;;;1.34;94.16
84116;BME280;74211;52.234;9.860;2024-01-06T16:13:44;100612.47;;;1.31;94.29
84116;BME280;74211;52.234;9.860;2024-01-06T16:16:16;100614.38;;;1.29;94.19
84116;BME280;74211;52.234;9.860;2024-01-06T16:18:47;100620.59;;;1.27;94.08
84116;BME280;74211;52.234;9.860;2024-01-06T16:21:24;100623.41;;;1.24;94.27
84116;BME280;74211;52.234;9.860;2024-01-06T16:23:55;100622.22;;;1.28;94.49
84116;BME280;74211;52.234;9.860;2024-01-06T16:26:27;100625.72;;;1.27;94.63
84116;BME280;74211;52.234;9.860;2024-01-06T16:28:57;100631.56;;;1.38;95.14
84116;BME280;74211;52.234;9.860;2024-01-06T16:31:27;100640.25;;;1.47;94.61
84116;BME280;74211;52.234;9.860;2024-01-06T16:33:58;100641.53;;;1.32;94.04
84116;BME280;74211;52.234;9.860;2024-01-06T16:36:31;100636.69;;;1.29;94.33
84116;BME280;74211;52.234;9.860;2024-01-06T16:39:01;100648.44;;;1.31;94.47
84116;BME280;74211;52.234;9.860;2024-01-06T16:41:30;100628.78;;;1.21;94.29
84116;BME280;74211;52.234;9.860;2024-01-06T16:44:00;100627.97;;;1.11;94.32
84116;BME280;74211;52.234;9.860;2024-01-06T16:46:30;100631.97;;;1.03;94.07
84116;BME280;74211;52.234;9.860;2024-01-06T16:49:01;100656.22;;;1.11;94.46
84116;BME280;74211;52.234;9.860;2024-01-06T16:51:33;100654.72;;;1.08;94.34
84116;BME280;74211;52.234;9.860;2024-01-06T16:54:04;100653.00;;;0.97;94.31
84116;BME280;74211;52.234;9.860;2024-01-06T16:56:35;100662.78;;;1.03;94.86
84116;BME280;74211;52.234;9.860;2024-01-06T16:59:04;100671.88;;;1.08;94.91
84116;BME280;74211;52.234;9.860;2024-01-06T17:01:34;100675.88;;;1.00;94.78
84116;BME280;74211;52.234;9.860;2024-01-06T17:04:05;100674.94;;;1.01;94.39
84116;BME280;74211;52.234;9.860;2024-01-06T17:06:39;100681.50;;;0.94;94.59
84116;BME280;74211;52.234;9.860;2024-01-06T17:09:09;100691.72;;;1.06;94.67
84116;BME280;74211;52.234;9.860;2024-01-06T17:11:40;100686.28;;;0.99;94.62
84116;BME280;74211;52.234;9.860;2024-01-06T17:14:09;100684.19;;;0.93;94.34
84116;BME280;74211;52.234;9.860;2024-01-06T17:16:41;100692.72;;;0.93;94.41
84116;BME280;74211;52.234;9.860;2024-01-06T17:19:11;100692.72;;;0.93;94.61
84116;BME280;74211;52.234;9.860;2024-01-06T17:21:43;100706.25;;;0.95;94.20
84116;BME280;74211;52.234;9.860;2024-01-06T17:24:17;100701.13;;;0.95;94.30
84116;BME280;74211;52.234;9.860;2024-01-06T17:26:47;100711.47;;;0.84;94.05
84116;BME280;74211;52.234;9.860;2024-01-06T17:29:17;100712.41;;;0.83;94.24
84116;BME280;74211;52.234;9.860;2024-01-06T17:31:47;100714.78;;;0.75;94.12
84116;BME280;74211;52.234;9.860;2024-01-06T17:34:18;100719.66;;;0.78;94.48
84116;BME280;74211;52.234;9.860;2024-01-06T17:36:51;100730.50;;;0.82;94.37
84116;BME280;74211;52.234;9.860;2024-01-06T17:39:21;100733.69;;;0.74;94.47
84116;BME280;74211;52.234;9.860;2024-01-06T17:41:51;100732.94;;;0.83;94.58
84116;BME280;74211;52.234;9.860;2024-01-06T17:44:26;100725.84;;;0.76;94.48
84116;BME280;74211;52.234;9.860;2024-01-06T17:46:56;100731.69;;;0.78;94.36
84116;BME280;74211;52.234;9.860;2024-01-06T17:49:27;100743.97;;;0.74;94.33